Terminal Aerodrome Forecast
Issued by NWS

Home | Current Version | Previous Version | Text Only | Print | Product List | Glossary On
Versions: 1 2 3 4 5 6 7 8 9 10 11 12 13
000
FTUS42 KMLB 171120
TAFSUA
TAF
KSUA 171120Z 1712/1812 00000KT P6SM FEW025
     FM171300 21004KT P6SM FEW030 SCT250
     FM171500 12010KT P6SM SCT030 BKN100
     FM172200 15006KT P6SM SCT030 BKN120
     FM180000 VRB03KT P6SM FEW020 SCT250=

USA.gov is the U.S. government's official web portal to all federal, state and local government web resources and services.